createdAt,value
2019-04-29T00:01:56.736Z,3.67
2019-04-29T00:04:26.410Z,2.20
2019-04-29T00:06:56.238Z,2.93
2019-04-29T00:09:26.542Z,3.00
2019-04-29T00:11:56.478Z,2.30
2019-04-29T00:14:26.313Z,2.23
2019-04-29T00:17:02.542Z,2.37
2019-04-29T00:19:50.039Z,2.30
2019-04-29T00:22:19.870Z,2.70
2019-04-29T00:24:49.682Z,2.10
2019-04-29T00:27:20.407Z,2.30
2019-04-29T00:29:50.162Z,3.33
2019-04-29T00:32:19.931Z,2.63
2019-04-29T00:34:49.666Z,2.30
2019-04-29T00:37:44.119Z,2.27
2019-04-29T00:40:31.967Z,3.07
2019-04-29T00:43:19.194Z,2.63
2019-04-29T00:45:48.954Z,3.07
2019-04-29T00:48:18.847Z,2.40
2019-04-29T00:50:48.574Z,2.57
2019-04-29T00:53:18.314Z,2.67
2019-04-29T00:55:50.406Z,2.53
2019-04-29T00:58:20.302Z,3.23
2019-04-29T01:00:50.225Z,3.00
2019-04-29T01:03:20.750Z,2.60
2019-04-29T01:05:50.673Z,2.53
2019-04-29T01:08:20.402Z,2.07
2019-04-29T01:10:50.162Z,2.00
2019-04-29T01:13:19.918Z,2.70
2019-04-29T01:15:49.783Z,2.37
2019-04-29T01:18:19.467Z,2.80
2019-04-29T01:20:49.247Z,2.13
2019-04-29T01:23:18.918Z,2.83
2019-04-29T01:25:52.420Z,2.33
2019-04-29T01:28:30.648Z,2.90
2019-04-29T01:31:04.728Z,3.10
2019-04-29T01:33:34.549Z,2.73
2019-04-29T01:36:21.080Z,2.63
2019-04-29T01:38:52.054Z,2.47
2019-04-29T01:41:24.358Z,3.10
2019-04-29T01:44:07.490Z,2.70
2019-04-29T01:46:37.312Z,2.50
2019-04-29T01:49:06.999Z,2.97
2019-04-29T01:51:38.539Z,2.87
2019-04-29T01:54:08.365Z,2.27
2019-04-29T01:56:38.044Z,2.40
2019-04-29T01:59:07.778Z,3.00
2019-04-29T02:01:43.423Z,3.20
2019-04-29T02:04:13.170Z,3.00
2019-04-29T02:06:43.002Z,2.97
2019-04-29T02:09:19.947Z,2.90
2019-04-29T02:11:49.683Z,3.70
2019-04-29T02:14:19.350Z,2.30
2019-04-29T02:16:49.030Z,2.30
2019-04-29T02:19:18.706Z,3.13
2019-04-29T02:22:06.041Z,2.57
2019-04-29T02:24:38.184Z,3.10
2019-04-29T02:27:07.884Z,2.53
2019-04-29T02:29:37.803Z,2.40
2019-04-29T02:32:07.678Z,3.23
2019-04-29T02:34:37.508Z,2.53
2019-04-29T02:37:08.831Z,3.33
2019-04-29T02:39:44.611Z,3.20
2019-04-29T02:42:42.727Z,2.87
2019-04-29T02:45:20.979Z,3.73
2019-04-29T02:47:50.660Z,3.07
2019-04-29T02:50:20.696Z,2.93
2019-04-29T02:52:50.429Z,3.73
2019-04-29T02:55:29.612Z,3.33
2019-04-29T02:58:04.624Z,3.90
2019-04-29T03:00:59.575Z,3.20
2019-04-29T03:04:03.843Z,3.70
2019-04-29T03:06:33.599Z,2.87
2019-04-29T03:09:04.176Z,3.47
2019-04-29T03:11:35.071Z,3.57
2019-04-29T03:14:05.052Z,3.90
2019-04-29T03:16:34.882Z,3.80
2019-04-29T03:19:09.330Z,3.23
2019-04-29T03:21:47.173Z,3.53
2019-04-29T03:24:17.949Z,3.80
2019-04-29T03:26:47.766Z,3.50
2019-04-29T03:29:23.637Z,3.87
2019-04-29T03:31:54.743Z,4.17
2019-04-29T03:34:24.907Z,2.93
2019-04-29T03:36:54.891Z,3.60
2019-04-29T03:39:24.576Z,3.60
2019-04-29T03:41:54.496Z,3.40
2019-04-29T03:44:24.252Z,3.77
2019-04-29T03:46:54.070Z,3.10
2019-04-29T03:49:23.776Z,3.50
2019-04-29T03:51:53.448Z,3.40
2019-04-29T03:54:23.187Z,3.93
2019-04-29T03:56:52.886Z,3.73
2019-04-29T03:59:22.561Z,4.53
2019-04-29T04:02:05.533Z,3.70
2019-04-29T04:05:00.471Z,3.83
2019-04-29T04:07:49.309Z,4.47
2019-04-29T04:10:19.142Z,3.00
2019-04-29T04:12:48.835Z,2.73
2019-04-29T04:15:18.660Z,3.47
2019-04-29T04:18:08.849Z,2.47
2019-04-29T04:20:38.763Z,2.53
2019-04-29T04:23:08.504Z,3.03
2019-04-29T04:25:38.206Z,4.20
2019-04-29T04:28:08.486Z,3.90
2019-04-29T04:30:38.166Z,3.13
2019-04-29T04:33:10.891Z,2.80
2019-04-29T04:35:40.570Z,2.90
2019-04-29T04:38:10.389Z,4.50
2019-04-29T04:40:44.333Z,4.37
2019-04-29T04:43:14.080Z,4.07
2019-04-29T04:45:43.837Z,4.73
2019-04-29T04:48:13.582Z,4.43
2019-04-29T04:50:43.342Z,4.83
2019-04-29T04:53:13.024Z,4.37
2019-04-29T04:55:44.562Z,3.83
2019-04-29T04:58:14.249Z,4.30
2019-04-29T05:00:47.037Z,4.30
2019-04-29T05:03:16.797Z,4.00
2019-04-29T05:05:47.399Z,4.30
2019-04-29T05:08:17.110Z,3.70
2019-04-29T05:10:47.007Z,3.47
2019-04-29T05:13:27.273Z,4.10
2019-04-29T05:15:48.153Z,3.60
2019-04-29T05:18:17.905Z,3.67
2019-04-29T05:20:47.598Z,4.13
2019-04-29T05:23:17.278Z,5.57
2019-04-29T05:25:47.059Z,4.60
2019-04-29T05:28:16.820Z,4.93
2019-04-29T05:30:46.603Z,4.40
2019-04-29T05:33:16.278Z,4.13
2019-04-29T05:35:52.004Z,4.10
2019-04-29T05:38:25.751Z,5.80
2019-04-29T05:40:57.012Z,4.67
2019-04-29T05:43:35.041Z,5.57
2019-04-29T05:46:10.949Z,4.73
2019-04-29T05:48:40.630Z,4.47
2019-04-29T05:51:30.698Z,3.83
2019-04-29T05:54:01.603Z,5.67
2019-04-29T05:56:31.286Z,5.17
2019-04-29T05:59:01.055Z,4.87
2019-04-29T06:01:31.425Z,5.27
2019-04-29T06:04:01.111Z,4.73
2019-04-29T06:06:30.980Z,4.47
2019-04-29T06:09:00.760Z,4.43
2019-04-29T06:11:31.935Z,5.23
2019-04-29T06:14:01.610Z,4.63
2019-04-29T06:16:31.308Z,5.97
2019-04-29T06:19:04.195Z,5.10
2019-04-29T06:21:32.515Z,5.20
2019-04-29T06:24:04.475Z,5.10
2019-04-29T06:26:34.077Z,6.33
2019-04-29T06:29:05.826Z,5.17
2019-04-29T06:31:35.651Z,5.37
2019-04-29T06:34:06.522Z,5.40
2019-04-29T06:36:36.473Z,6.40
2019-04-29T06:39:07.167Z,5.80
2019-04-29T06:41:40.697Z,5.37
2019-04-29T06:44:16.128Z,5.13
2019-04-29T06:46:40.938Z,6.27
2019-04-29T06:49:10.982Z,4.70
2019-04-29T06:51:41.738Z,5.70
2019-04-29T06:54:11.594Z,5.63
2019-04-29T06:56:41.359Z,4.57
2019-04-29T06:59:12.065Z,5.17
2019-04-29T07:01:42.616Z,4.97
2019-04-29T07:04:12.366Z,4.33
2019-04-29T07:06:42.049Z,4.00
2019-04-29T07:09:11.727Z,4.60
2019-04-29T07:11:41.427Z,3.80
2019-04-29T07:14:11.153Z,5.13
2019-04-29T07:16:40.942Z,4.60
2019-04-29T07:19:10.634Z,5.07
2019-04-29T07:21:41.861Z,4.40
2019-04-29T07:24:11.794Z,3.77
2019-04-29T07:26:41.581Z,4.27
2019-04-29T07:29:11.278Z,3.80
2019-04-29T07:31:41.054Z,3.53
2019-04-29T07:34:10.867Z,3.70
2019-04-29T07:36:40.654Z,2.63
2019-04-29T07:39:10.571Z,3.77
2019-04-29T07:41:40.683Z,3.77
2019-04-29T07:44:13.606Z,4.23
2019-04-29T07:46:56.594Z,3.13
2019-04-29T07:49:19.015Z,2.73
2019-04-29T07:51:48.725Z,2.47
2019-04-29T07:54:18.581Z,3.30
2019-04-29T07:56:48.371Z,3.20
2019-04-29T07:59:18.082Z,3.00
2019-04-29T08:01:47.800Z,3.70
2019-04-29T08:04:17.602Z,3.70
2019-04-29T08:06:47.459Z,3.60
2019-04-29T08:09:17.598Z,3.97
2019-04-29T08:11:48.566Z,3.63
2019-04-29T08:14:19.308Z,3.67
2019-04-29T08:16:49.019Z,4.17
2019-04-29T08:19:18.837Z,4.00
2019-04-29T08:21:49.725Z,3.77
2019-04-29T08:24:20.231Z,3.00
2019-04-29T08:26:49.901Z,3.70
2019-04-29T08:29:19.734Z,3.53
2019-04-29T08:31:51.768Z,3.87
2019-04-29T08:34:23.119Z,3.97
2019-04-29T08:36:52.628Z,3.13
2019-04-29T08:39:25.015Z,3.47
2019-04-29T08:41:54.162Z,3.43
2019-04-29T08:44:31.279Z,3.57
2019-04-29T08:47:23.598Z,3.17
2019-04-29T08:49:53.986Z,4.23
2019-04-29T08:52:23.673Z,3.40
2019-04-29T08:54:55.435Z,4.07
2019-04-29T08:57:24.941Z,4.10
2019-04-29T08:59:54.718Z,3.53
2019-04-29T09:02:34.604Z,3.80
2019-04-29T09:04:55.854Z,3.90
2019-04-29T09:07:25.694Z,2.90
2019-04-29T09:10:01.836Z,2.77
2019-04-29T09:12:29.390Z,2.43
2019-04-29T09:14:59.371Z,2.40
2019-04-29T09:17:29.065Z,2.43
2019-04-29T09:19:58.783Z,2.07
2019-04-29T09:22:30.285Z,2.00
2019-04-29T09:25:26.097Z,2.27
2019-04-29T09:27:57.542Z,2.00
2019-04-29T09:30:27.465Z,2.27
2019-04-29T09:32:57.231Z,2.67
2019-04-29T09:35:28.750Z,2.63
2019-04-29T09:37:58.637Z,2.53
2019-04-29T09:40:31.448Z,1.70
2019-04-29T09:43:21.396Z,2.47
2019-04-29T09:46:09.130Z,2.23
2019-04-29T09:48:38.913Z,2.57
2019-04-29T09:51:17.222Z,2.00
2019-04-29T09:53:40.123Z,2.13
2019-04-29T09:56:09.897Z,2.03
2019-04-29T09:58:39.584Z,1.87
2019-04-29T10:01:20.318Z,2.33
2019-04-29T10:04:05.155Z,1.90
2019-04-29T10:06:36.766Z,2.60
2019-04-29T10:09:10.079Z,2.43
2019-04-29T10:11:40.160Z,2.03
2019-04-29T10:14:10.359Z,1.80
2019-04-29T10:16:58.772Z,2.40
2019-04-29T10:19:34.612Z,2.13
2019-04-29T10:22:04.489Z,1.90
2019-04-29T10:24:34.218Z,2.10
2019-04-29T10:27:07.105Z,1.80
2019-04-29T10:29:37.485Z,1.77
2019-04-29T10:32:09.690Z,1.67
2019-04-29T10:34:39.547Z,1.90
2019-04-29T10:37:09.710Z,2.17
2019-04-29T10:40:10.314Z,2.00
2019-04-29T10:42:34.019Z,1.10
2019-04-29T10:45:24.257Z,1.67
2019-04-29T10:48:28.108Z,1.43
2019-04-29T10:50:59.034Z,1.70
2019-04-29T10:53:29.014Z,2.07
2019-04-29T10:56:00.880Z,1.70
2019-04-29T10:58:35.465Z,1.83
2019-04-29T11:02:01.671Z,2.20
2019-04-29T11:04:31.634Z,1.47
2019-04-29T11:07:14.229Z,2.00
2019-04-29T11:09:50.707Z,1.70
2019-04-29T11:12:21.190Z,1.83
2019-04-29T11:14:50.958Z,1.77
2019-04-29T11:17:23.238Z,1.77
2019-04-29T11:19:53.207Z,2.17
2019-04-29T11:22:25.370Z,1.70
2019-04-29T11:25:12.951Z,1.50
2019-04-29T11:27:48.590Z,1.83
2019-04-29T11:30:22.510Z,1.90
2019-04-29T11:32:59.977Z,2.37
2019-04-29T11:35:49.535Z,2.57
2019-04-29T11:39:13.892Z,3.10
2019-04-29T11:41:40.752Z,2.80
2019-04-29T11:44:10.611Z,2.60
2019-04-29T11:46:40.446Z,1.20
2019-04-29T11:49:11.978Z,2.40
2019-04-29T11:52:07.646Z,2.33
2019-04-29T11:54:18.138Z,2.47
2019-04-29T11:56:46.720Z,2.60
2019-04-29T11:59:38.815Z,2.67
2019-04-29T12:02:45.421Z,2.10
2019-04-29T12:05:25.882Z,2.03
2019-04-29T12:07:55.645Z,1.60
2019-04-29T12:10:25.402Z,1.83
2019-04-29T12:12:56.142Z,1.77
2019-04-29T12:15:49.024Z,1.50
2019-04-29T12:18:25.822Z,1.53
2019-04-29T12:21:29.721Z,2.03
2019-04-29T12:24:02.667Z,2.03
2019-04-29T12:26:35.554Z,1.73
2019-04-29T12:29:04.291Z,1.40
2019-04-29T12:31:44.799Z,1.80
2019-04-29T12:34:34.812Z,2.33
2019-04-29T12:37:12.501Z,2.40
2019-04-29T12:39:59.830Z,2.03
2019-04-29T12:42:48.684Z,1.93
2019-04-29T12:45:26.002Z,1.90
2019-04-29T12:47:55.909Z,1.47
2019-04-29T12:50:25.706Z,1.70
2019-04-29T12:52:55.434Z,1.77
2019-04-29T12:55:44.298Z,2.63
2019-04-29T12:58:03.963Z,1.90
2019-04-29T13:00:46.694Z,1.80
2019-04-29T13:03:14.542Z,2.20
2019-04-29T13:06:09.464Z,1.77
2019-04-29T13:08:50.179Z,1.63
2019-04-29T13:11:21.009Z,2.47
2019-04-29T13:13:56.074Z,2.07
2019-04-29T13:16:51.012Z,2.30
2019-04-29T13:19:30.060Z,1.93
2019-04-29T13:22:00.939Z,2.17
2019-04-29T13:24:30.622Z,2.23
2019-04-29T13:27:00.326Z,2.17
2019-04-29T13:29:32.177Z,2.03
2019-04-29T13:32:01.886Z,2.43
2019-04-29T13:34:37.390Z,3.60
2019-04-29T13:37:12.311Z,3.60
2019-04-29T13:39:40.329Z,4.70
2019-04-29T13:42:15.406Z,4.97
2019-04-29T13:44:45.990Z,4.33
2019-04-29T13:47:29.092Z,3.90
2019-04-29T13:50:17.010Z,4.60
2019-04-29T13:52:32.618Z,3.97
2019-04-29T13:55:16.595Z,4.20
2019-04-29T13:57:33.782Z,3.93
2019-04-29T14:00:26.430Z,4.73
2019-04-29T14:03:07.331Z,3.53
2019-04-29T14:05:36.723Z,3.33
2019-04-29T14:08:06.170Z,4.27
2019-04-29T14:10:36.034Z,3.57
2019-04-29T14:13:13.426Z,3.57
2019-04-29T14:15:40.384Z,3.00
2019-04-29T14:18:11.573Z,3.53
2019-04-29T14:20:40.256Z,4.40
2019-04-29T14:23:10.042Z,3.90
2019-04-29T14:25:39.735Z,4.17
2019-04-29T14:28:09.438Z,2.83
2019-04-29T14:30:43.318Z,3.07
2019-04-29T14:33:10.726Z,2.73
2019-04-29T14:35:59.339Z,2.83
2019-04-29T14:38:27.618Z,3.17
2019-04-29T14:40:57.320Z,2.53
2019-04-29T14:43:55.037Z,3.13
2019-04-29T14:46:44.307Z,3.30
2019-04-29T14:49:17.756Z,2.53
2019-04-29T14:51:47.464Z,2.93
2019-04-29T14:54:17.230Z,3.03
2019-04-29T14:56:46.997Z,3.40
2019-04-29T14:59:16.785Z,2.97
2019-04-29T15:01:55.395Z,3.70
2019-04-29T15:04:28.131Z,3.70
2019-04-29T15:06:57.953Z,4.17
2019-04-29T15:09:29.056Z,3.77
2019-04-29T15:12:23.957Z,3.80
2019-04-29T15:15:29.854Z,3.23
2019-04-29T15:18:15.565Z,3.17
2019-04-29T15:21:05.738Z,3.17
2019-04-29T15:23:33.503Z,2.63
2019-04-29T15:26:03.298Z,2.80
2019-04-29T15:28:35.555Z,3.43
2019-04-29T15:31:07.983Z,3.07
2019-04-29T15:33:37.134Z,2.90
2019-04-29T15:36:06.911Z,3.67
2019-04-29T15:38:36.790Z,3.13
2019-04-29T15:41:06.601Z,3.00
2019-04-29T15:43:47.328Z,2.53
2019-04-29T15:46:11.297Z,3.43
2019-04-29T15:48:39.303Z,3.00
2019-04-29T15:51:13.950Z,2.83
2019-04-29T15:53:43.388Z,3.27
2019-04-29T15:56:28.213Z,4.17
2019-04-29T15:58:45.398Z,3.10
2019-04-29T16:03:49.983Z,3.80
2019-04-29T16:06:33.976Z,3.60
2019-04-29T16:09:23.520Z,4.17
2019-04-29T16:11:58.185Z,4.03
2019-04-29T16:14:27.930Z,4.77
2019-04-29T16:16:57.716Z,4.40
2019-04-29T16:19:27.478Z,4.00
2019-04-29T16:21:57.257Z,4.50
2019-04-29T16:24:32.313Z,4.57
2019-04-29T16:27:01.280Z,4.73
2019-04-29T16:29:29.794Z,4.47
2019-04-29T16:32:02.333Z,4.07
2019-04-29T16:34:31.063Z,4.97
2019-04-29T16:37:01.707Z,4.67
2019-04-29T16:39:31.590Z,3.60
2019-04-29T16:42:23.354Z,4.17
2019-04-29T16:44:53.048Z,3.77
2019-04-29T16:47:23.165Z,4.83
2019-04-29T16:49:57.459Z,4.20
2019-04-29T16:52:24.362Z,3.43
2019-04-29T16:54:59.007Z,4.67
2019-04-29T16:57:25.591Z,4.00
2019-04-29T16:59:55.386Z,3.83
2019-04-29T17:02:25.214Z,3.17
2019-04-29T17:04:56.647Z,4.00
2019-04-29T17:07:26.693Z,3.50
2019-04-29T17:10:14.605Z,3.70
2019-04-29T17:12:48.773Z,3.27
2019-04-29T17:15:25.129Z,3.07
2019-04-29T17:17:49.973Z,3.07
2019-04-29T17:20:20.054Z,3.83
2019-04-29T17:22:49.798Z,4.27
2019-04-29T17:25:20.276Z,3.70
2019-04-29T17:28:11.778Z,3.47
2019-04-29T17:30:58.625Z,2.80
2019-04-29T17:33:50.955Z,3.67
2019-04-29T17:35:13.887Z,3.90
2019-04-29T17:36:23.896Z,3.57
2019-04-29T17:38:52.629Z,3.40
2019-04-29T17:41:23.430Z,3.17
2019-04-29T17:44:14.560Z,3.33
2019-04-29T17:47:02.826Z,3.13
2019-04-29T17:49:46.694Z,2.87
2019-04-29T17:52:23.060Z,2.80
2019-04-29T17:54:55.942Z,2.83
2019-04-29T17:57:32.562Z,2.20
2019-04-29T18:00:26.079Z,1.90
2019-04-29T18:03:12.828Z,2.00
2019-04-29T18:05:54.858Z,1.57
2019-04-29T18:08:28.597Z,2.07
2019-04-29T18:11:03.731Z,1.93
2019-04-29T18:13:31.155Z,3.07
2019-04-29T18:16:04.292Z,1.83
2019-04-29T18:18:46.400Z,2.40
2019-04-29T18:21:26.010Z,2.20
2019-04-29T18:24:15.324Z,2.60
2019-04-29T18:26:56.326Z,3.50
2019-04-29T18:29:26.150Z,3.33
2019-04-29T18:31:55.946Z,3.77
2019-04-29T18:34:29.435Z,3.30
2019-04-29T18:37:00.378Z,3.20
2019-04-29T18:39:31.351Z,3.13
2019-04-29T18:42:03.314Z,3.90
2019-04-29T18:44:31.891Z,3.03
2019-04-29T18:47:01.658Z,4.00
2019-04-29T18:49:31.458Z,3.73
2019-04-29T18:52:02.298Z,3.43
2019-04-29T18:54:32.667Z,3.33
2019-04-29T18:57:02.420Z,3.23
2019-04-29T18:59:33.401Z,3.30
2019-04-29T19:02:07.741Z,3.23
2019-04-29T19:04:40.108Z,3.63
2019-04-29T19:07:09.896Z,2.60
2019-04-29T19:09:40.911Z,3.33
2019-04-29T19:12:10.875Z,2.63
2019-04-29T19:14:41.763Z,3.83
2019-04-29T19:17:11.530Z,3.00
2019-04-29T19:19:41.198Z,3.17
2019-04-29T19:22:10.977Z,3.00
2019-04-29T19:24:40.810Z,3.40
2019-04-29T19:27:10.819Z,3.33
2019-04-29T19:29:43.206Z,2.67
2019-04-29T19:32:12.058Z,3.03
2019-04-29T19:34:43.483Z,2.57
2019-04-29T19:37:13.187Z,3.70
2019-04-29T19:39:44.841Z,3.30
2019-04-29T19:42:16.765Z,2.83
2019-04-29T19:44:46.046Z,3.73
2019-04-29T19:47:16.756Z,3.40
2019-04-29T19:49:46.685Z,3.13
2019-04-29T19:52:26.521Z,4.00
2019-04-29T19:54:47.818Z,2.83
2019-04-29T19:57:17.515Z,3.60
2019-04-29T19:59:51.208Z,2.70
2019-04-29T20:02:19.110Z,2.13
2019-04-29T20:04:59.413Z,3.17
2019-04-29T20:07:28.784Z,2.50
2019-04-29T20:10:05.224Z,2.23
2019-04-29T20:12:31.570Z,2.10
2019-04-29T20:15:02.488Z,2.07
2019-04-29T20:17:50.903Z,2.30
2019-04-29T20:20:38.337Z,2.23
2019-04-29T20:23:06.073Z,3.17
2019-04-29T20:25:38.541Z,2.70
2019-04-29T20:28:12.819Z,2.10
2019-04-29T20:30:40.031Z,3.23
2019-04-29T20:33:12.657Z,2.23
2019-04-29T20:35:45.394Z,1.60
2019-04-29T20:38:12.757Z,2.17
2019-04-29T20:40:43.498Z,2.47
2019-04-29T20:43:15.812Z,2.10
2019-04-29T20:45:45.583Z,1.63
2019-04-29T20:48:19.433Z,2.43
2019-04-29T20:50:52.678Z,2.67
2019-04-29T20:53:30.843Z,1.90
2019-04-29T20:56:09.500Z,1.40
2019-04-29T20:58:32.850Z,1.50
2019-04-29T21:01:03.639Z,2.20
2019-04-29T21:03:35.500Z,1.97
2019-04-29T21:06:06.300Z,1.93
2019-04-29T21:08:36.208Z,2.10
2019-04-29T21:11:16.149Z,2.23
2019-04-29T21:13:56.234Z,2.40
2019-04-29T21:16:30.876Z,2.20
2019-04-29T21:19:08.471Z,2.13
2019-04-29T21:21:42.166Z,2.13
2019-04-29T21:24:13.856Z,1.60
2019-04-29T21:26:44.604Z,1.57
2019-04-29T21:29:15.857Z,2.33
2019-04-29T21:31:45.810Z,2.40
2019-04-29T21:34:17.361Z,2.03
2019-04-29T21:37:01.584Z,1.63
2019-04-29T21:39:50.192Z,2.20
2019-04-29T21:42:43.278Z,1.83
2019-04-29T21:45:17.326Z,2.60
2019-04-29T21:47:53.449Z,1.60
2019-04-29T21:50:19.757Z,2.10
2019-04-29T21:52:49.543Z,1.77
2019-04-29T21:55:20.531Z,2.30
2019-04-29T21:57:54.454Z,1.57
2019-04-29T22:00:24.456Z,1.70
2019-04-29T22:02:55.872Z,1.83
2019-04-29T22:05:25.561Z,1.70
2019-04-29T22:07:55.234Z,2.10
2019-04-29T22:10:28.932Z,1.63
2019-04-29T22:13:04.931Z,2.27
2019-04-29T22:15:33.332Z,2.20
2019-04-29T22:18:01.878Z,2.03
2019-04-29T22:20:37.582Z,2.53
2019-04-29T22:23:06.433Z,2.37
2019-04-29T22:25:36.634Z,3.53
2019-04-29T22:28:06.521Z,2.47
2019-04-29T22:30:36.390Z,2.93
2019-04-29T22:33:07.196Z,3.40
2019-04-29T22:35:40.621Z,2.97
2019-04-29T22:38:12.629Z,3.20
2019-04-29T22:40:42.547Z,2.50
2019-04-29T22:43:20.030Z,2.77
2019-04-29T22:45:49.878Z,2.50
2019-04-29T22:48:19.947Z,3.00
2019-04-29T22:50:49.866Z,2.77
2019-04-29T22:53:19.695Z,3.13
2019-04-29T22:55:50.355Z,3.33
2019-04-29T22:58:20.107Z,2.70
2019-04-29T23:00:49.940Z,2.40
2019-04-29T23:03:19.642Z,2.53
2019-04-29T23:05:49.395Z,2.30
2019-04-29T23:08:19.082Z,3.17
2019-04-29T23:10:48.989Z,2.97
2019-04-29T23:13:18.830Z,3.47
2019-04-29T23:15:48.644Z,2.90
2019-04-29T23:18:24.616Z,3.13
2019-04-29T23:21:08.418Z,3.00
2019-04-29T23:23:45.265Z,3.13
2019-04-29T23:26:14.858Z,3.30
2019-04-29T23:28:46.077Z,2.53
2019-04-29T23:31:15.826Z,3.20
2019-04-29T23:33:45.752Z,3.30
2019-04-29T23:36:15.977Z,3.40
2019-04-29T23:38:45.955Z,2.60
2019-04-29T23:41:15.644Z,3.43
2019-04-29T23:43:45.701Z,4.30
2019-04-29T23:46:16.147Z,3.27
2019-04-29T23:48:46.782Z,3.40
2019-04-29T23:51:16.640Z,3.83
2019-04-29T23:53:46.431Z,4.10
2019-04-29T23:56:17.189Z,3.30
2019-04-29T23:58:55.276Z,3.30
